Summerfield, Ohio
Current Conditions -  °F | °C
As of 2:53 PM on Wednesday 17 Dec 2014 (Local Time) from KZZV Reporting Station
Overcast Overcast  
Wind Chill: 23°   Ceiling: 2100
Heat Index: 32°   Visibility: 10mi
Dew Point: 24°   Wind: 13mph
Humidity: 73%   Direction: 250°WSW
Pressure: 30.14"   Gusts: NA
Location:  39.8°N, 81.34°W
Report Text: KZZV 171953Z AUTO 25011KT 10SM OVC021 00/M04 A3014 RMK AO2 SLP213 T00001044
Loading
Personal Weather Stations






























Interactive Weather Map New forecast layout! Learn more

10-Day Weather Forecast

Advertisements
Track Severe Weather on mobile